Αναφορές Αεροδρομίων

 

KSJC - San Jose, California, USA
Distance from station: ΒΑ 14km
Ενημερώθηκε: 26/01/2021 18:53
Few Clouds
Few Clouds
 Ανεμος από ΝΝΑ
Ανεμος: ΝΝΑ 13 km/h
Θερμοκρασία: 5°C
Wind Chill: 2°C
Σημείο Δρόσου: 1°C
Υγρασία: 76%
Βαρόμετρο: 1015.9 hPa
Clouds: Few Clouds
Visibility: 16 km
Cloud details: Few Clouds 853 m
Few Clouds 3048 m
2021/01/26 16:53 KSJC 261653Z 15007KT 10SM FEW028 FEW100 05/01 A3000 RMK AO2 SLP157 T00500006
KNUQ - Moffett Nas/Mtn, California, USA
Distance from station: Β 14km
Ενημερώθηκε: 26/01/2021 19:30
Αίθριος
Αίθριος
 Ανεμος από ΝΑ
Ανεμος: ΝΑ 13 km/h
Θερμοκρασία: 7°C
Wind Chill: 5°C
Σημείο Δρόσου: 1°C
Υγρασία: 66%
Βαρόμετρο: 1015.9 hPa
Clouds: Αίθριος
Visibility: 16 km
2021/01/26 17:30 KNUQ 261730Z AUTO 14007KT 10SM CLR 07/01 A3000 RMK AO2
 
KPAO - Palo Alto, California, USA
Distance from station: ΒΒΔ 23km
Ενημερώθηκε: 26/01/2021 18:47
Αίθριος
Αίθριος
 Ανεμος από ΝΝΑ
Ανεμος: ΝΝΑ 11 km/h
Θερμοκρασία: 4°C
Wind Chill: 1°C
Σημείο Δρόσου: 2°C
Υγρασία: 87%
Βαρόμετρο: 1015.6 hPa
Clouds: Αίθριος
Visibility: 16 km
2021/01/26 16:47 KPAO 261647Z 15006KT 10SM SKC 04/02 A2999
KRHV - San Jose/Reid, California, USA
Distance from station: ΑΒΑ 19km
Ενημερώθηκε: 26/01/2021 19:15

 Ανεμος από ΝΑ
Ανεμος: ΝΑ 9 km/h
Θερμοκρασία: 7°C
Wind Chill: 6°C
Σημείο Δρόσου: 1°C
Υγρασία: 66%
Βαρόμετρο: 1016.3 hPa
Visibility: 16 km
2021/01/26 17:15 KRHV 261715Z 13005KT 10SM 07/01 A3001
 
KOAK - Oakland, California, USA
Distance from station: ΒΒΔ 50km
Ενημερώθηκε: 26/01/2021 18:53
Few Clouds
Few Clouds
 Ανεμος από ΝΑ
Ανεμος: ΝΑ 15 km/h
Θερμοκρασία: 7°C
Wind Chill: 4°C
Σημείο Δρόσου: 1°C
Υγρασία: 66%
Βαρόμετρο: 1015.6 hPa
Clouds: Few Clouds
Visibility: 16 km
Cloud details: Few Clouds 244 m
Few Clouds 6096 m
2021/01/26 16:53 KOAK 261653Z 14008KT 10SM FEW008 FEW200 07/01 A2999 RMK AO2 SLP153 T00670011
KSQL - San Carlos Airpo, California, USA
Distance from station: ΒΔ 34km
Ενημερώθηκε: 26/01/2021 18:53
Αίθριος
Αίθριος
 Ανεμος από ΝΑ
Ανεμος: ΝΑ 7 km/h
Θερμοκρασία: 5°C
Wind Chill: 3°C
Σημείο Δρόσου: 2°C
Υγρασία: 81%
Βαρόμετρο: 1015.6 hPa
Clouds: Αίθριος
Visibility: 16 km
2021/01/26 16:53 KSQL 261653Z 13004KT 10SM SKC 05/02 A2999
 
KSFO - San Francisco, California, USA
Distance from station: ΒΔ 49km
Ενημερώθηκε: 26/01/2021 18:56
Few Clouds
Few Clouds
 Ανεμος από ΝΝΔ
Ανεμος: ΝΝΔ 7 km/h
Θερμοκρασία: 8°C
Wind Chill: 7°C
Σημείο Δρόσου: 2°C
Υγρασία: 66%
Βαρόμετρο: 1015.2 hPa
Clouds: Few Clouds
Visibility: 16 km
Cloud details: Few Clouds 6096 m
2021/01/26 16:56 KSFO 261656Z 21004KT 10SM FEW200 08/02 A2998 RMK AO2 SLP151 T00830022
KE16 - San Martin, California, USA
Distance from station: ΑΝΑ 43km
Ενημερώθηκε: 26/01/2021 19:35
Αίθριος
Αίθριος
 Ανεμος από calm
Ανεμος: Απνοια
Θερμοκρασία: 3°C
Σημείο Δρόσου: 0°C
Υγρασία: 81%
Βαρόμετρο: 1017.3 hPa
Clouds: Αίθριος
Visibility: 16 km
2021/01/26 17:35 KE16 261735Z AUTO 00000KT 10SM CLR 03/00 A3004 RMK AO2
 
KWVI - Watsonville, California, USA
Distance from station: ΝΝΑ 44km
Ενημερώθηκε: 26/01/2021 18:53
Αίθριος
Αίθριος
 Ανεμος από calm
Ανεμος: Απνοια
Θερμοκρασία: 5°C
Σημείο Δρόσου: 1°C
Υγρασία: 76%
Βαρόμετρο: 1016.6 hPa
Clouds: Αίθριος
Visibility: 16 km
2021/01/26 16:53 KWVI 261653Z AUTO 00000KT 10SM CLR 05/01 A3002 RMK AO2 SLP165 T00500011
KHAF - Half Moon Bay, California, USA
Distance from station: ΔΒΔ 50km
Ενημερώθηκε: 26/01/2021 19:35
Αίθριος
Αίθριος
 Ανεμος από ΝΑ
Ανεμος: ΝΑ 9 km/h
Θερμοκρασία: 8°C
Wind Chill: 6°C
Σημείο Δρόσου: 3°C
Υγρασία: 71%
Βαρόμετρο: 1015.6 hPa
Clouds: Αίθριος
Visibility: 11 km
2021/01/26 17:35 KHAF 261735Z AUTO 14005KT 7SM CLR 08/03 A2999 RMK AO2
 
KHWD - Hayward, California, USA
Distance from station: Β 44km
Ενημερώθηκε: 26/01/2021 18:54
Αίθριος
Αίθριος
 Ανεμος από ΝΑ
Ανεμος: ΝΑ 15 km/h
Θερμοκρασία: 6°C
Wind Chill: 3°C
Σημείο Δρόσου: 1°C
Υγρασία: 71%
Βαρόμετρο: 1015.2 hPa
Clouds: Αίθριος
Visibility: 16 km
2021/01/26 16:54 KHWD 261654Z 14008KT 10SM CLR 06/01 A2998 RMK AO2 SLP162 T00560011
KLVK - Livermore, California, USA
Distance from station: ΒΒΑ 51km
Ενημερώθηκε: 26/01/2021 18:53
Αίθριος
Αίθριος
 Ανεμος από calm
Ανεμος: Απνοια
Θερμοκρασία: 2°C
Σημείο Δρόσου: -1°C
Υγρασία: 81%
Βαρόμετρο: 1015.2 hPa
Clouds: Αίθριος
Visibility: 16 km
2021/01/26 16:53 KLVK 261653Z 00000KT 10SM CLR 02/M01 A2998 RMK AO2 SLP151 T00221011